sensor_id;sensor_type;location;lat;lon;timestamp;pressure;altitude;pressure_sealevel;temperature;humidity
6433;BME280;3249;42.690;23.260;2023-03-01T00:00:15;94799.25;;;4.95;100.00
6433;BME280;3249;42.690;23.260;2023-03-01T00:02:44;94758.88;;;4.76;100.00
6433;BME280;3249;42.690;23.260;2023-03-01T00:05:16;94776.13;;;4.97;100.00
6433;BME280;3249;42.690;23.260;2023-03-01T00:07:45;94773.91;;;4.94;100.00
6433;BME280;3249;42.690;23.260;2023-03-01T00:10:14;94773.59;;;4.97;100.00
6433;BME280;3249;42.690;23.260;2023-03-01T00:12:43;94765.06;;;5.04;100.00
6433;BME280;3249;42.690;23.260;2023-03-01T00:15:12;94739.81;;;4.95;100.00
6433;BME280;3249;42.690;23.260;2023-03-01T00:17:41;94750.41;;;5.07;100.00
6433;BME280;3249;42.690;23.260;2023-03-01T00:20:11;94750.41;;;5.07;100.00
6433;BME280;3249;42.690;23.260;2023-03-01T00:22:43;94754.59;;;5.22;100.00
6433;BME280;3249;42.690;23.260;2023-03-01T00:25:11;94742.91;;;5.05;100.00
6433;BME280;3249;42.690;23.260;2023-03-01T00:27:40;94744.88;;;5.03;100.00
6433;BME280;3249;42.690;23.260;2023-03-01T00:30:10;94739.56;;;5.04;100.00
6433;BME280;3249;42.690;23.260;2023-03-01T00:32:39;94742.75;;;5.07;100.00
6433;BME280;3249;42.690;23.260;2023-03-01T00:35:08;94740.56;;;5.18;100.00
6433;BME280;3249;42.690;23.260;2023-03-01T00:37:37;94732.38;;;5.08;100.00
6433;BME280;3249;42.690;23.260;2023-03-01T00:40:11;94739.97;;;5.16;100.00
6433;BME280;3249;42.690;23.260;2023-03-01T00:42:42;94743.78;;;4.97;100.00
6433;BME280;3249;42.690;23.260;2023-03-01T00:45:11;94736.31;;;4.96;100.00
6433;BME280;3249;42.690;23.260;2023-03-01T00:47:39;94739.56;;;5.04;100.00
6433;BME280;3249;42.690;23.260;2023-03-01T00:50:10;94731.47;;;5.01;100.00
6433;BME280;3249;42.690;23.260;2023-03-01T00:52:39;94729.31;;;4.90;100.00
6433;BME280;3249;42.690;23.260;2023-03-01T00:55:12;94732.16;;;4.95;100.00
6433;BME280;3249;42.690;23.260;2023-03-01T00:57:41;94725.47;;;4.94;100.00
6433;BME280;3249;42.690;23.260;2023-03-01T01:00:11;94721.22;;;4.86;100.00
6433;BME280;3249;42.690;23.260;2023-03-01T01:02:40;94721.06;;;4.88;100.00
6433;BME280;3249;42.690;23.260;2023-03-01T01:05:09;94728.06;;;4.86;100.00
6433;BME280;3249;42.690;23.260;2023-03-01T01:07:38;94721.28;;;4.78;100.00
6433;BME280;3249;42.690;23.260;2023-03-01T01:10:11;94734.84;;;4.79;100.00
6433;BME280;3249;42.690;23.260;2023-03-01T01:12:44;94740.59;;;4.73;100.00
6433;BME280;3249;42.690;23.260;2023-03-01T01:15:13;94734.47;;;4.82;100.00
6433;BME280;3249;42.690;23.260;2023-03-01T01:17:42;94730.69;;;4.78;100.00
6433;BME280;3249;42.690;23.260;2023-03-01T01:20:12;94726.22;;;4.80;100.00
6433;BME280;3249;42.690;23.260;2023-03-01T01:22:41;94734.25;;;4.91;100.00
6433;BME280;3249;42.690;23.260;2023-03-01T01:25:13;94725.53;;;4.86;100.00
6433;BME280;3249;42.690;23.260;2023-03-01T01:27:42;94732.63;;;4.98;100.00
6433;BME280;3249;42.690;23.260;2023-03-01T01:30:12;94730.94;;;4.91;100.00
6433;BME280;3249;42.690;23.260;2023-03-01T01:32:41;94729.75;;;5.16;100.00
6433;BME280;3249;42.690;23.260;2023-03-01T01:35:10;94731.47;;;5.01;100.00
6433;BME280;3249;42.690;23.260;2023-03-01T01:37:44;94745.13;;;5.08;100.00
6433;BME280;3249;42.690;23.260;2023-03-01T01:40:18;94745.97;;;5.23;100.00
6433;BME280;3249;42.690;23.260;2023-03-01T01:42:47;94749.94;;;5.26;100.00
6433;BME280;3249;42.690;23.260;2023-03-01T01:45:32;94751.72;;;5.40;100.00
6433;BME280;3249;42.690;23.260;2023-03-01T01:48:04;94757.44;;;5.27;100.00
6433;BME280;3249;42.690;23.260;2023-03-01T01:50:35;94740.75;;;5.39;100.00
6433;BME280;3249;42.690;23.260;2023-03-01T01:53:13;94745.03;;;5.39;100.00
6433;BME280;3249;42.690;23.260;2023-03-01T01:55:50;94748.84;;;5.43;100.00
6433;BME280;3249;42.690;23.260;2023-03-01T01:58:21;94741.06;;;5.36;100.00
6433;BME280;3249;42.690;23.260;2023-03-01T02:00:50;94740.84;;;5.46;100.00
6433;BME280;3249;42.690;23.260;2023-03-01T02:03:23;94743.06;;;5.49;100.00
6433;BME280;3249;42.690;23.260;2023-03-01T02:06:00;94731.22;;;5.48;100.00
6433;BME280;3249;42.690;23.260;2023-03-01T02:08:34;94726.16;;;5.25;100.00
6433;BME280;3249;42.690;23.260;2023-03-01T02:11:08;94716.94;;;5.24;100.00
6433;BME280;3249;42.690;23.260;2023-03-01T02:13:40;94714.47;;;5.16;100.00
6433;BME280;3249;42.690;23.260;2023-03-01T02:16:12;94715.56;;;5.36;100.00
6433;BME280;3249;42.690;23.260;2023-03-01T02:18:43;94717.31;;;5.50;100.00
6433;BME280;3249;42.690;23.260;2023-03-01T02:21:21;94710.56;;;5.57;100.00
6433;BME280;3249;42.690;23.260;2023-03-01T02:23:56;94715.94;;;5.62;100.00
6433;BME280;3249;42.690;23.260;2023-03-01T02:26:33;94719.19;;;5.71;100.00
6433;BME280;3249;42.690;23.260;2023-03-01T02:29:08;94716.91;;;5.61;100.00
6433;BME280;3249;42.690;23.260;2023-03-01T02:31:37;94717.97;;;5.67;100.00
6433;BME280;3249;42.690;23.260;2023-03-01T02:34:14;94729.31;;;5.64;100.00
6433;BME280;3249;42.690;23.260;2023-03-01T02:36:46;94728.97;;;5.67;100.00
6433;BME280;3249;42.690;23.260;2023-03-01T02:39:19;94733.53;;;5.57;100.00
6433;BME280;3249;42.690;23.260;2023-03-01T02:41:53;94721.31;;;5.53;100.00
6433;BME280;3249;42.690;23.260;2023-03-01T02:44:25;94736.09;;;5.57;100.00
6433;BME280;3249;42.690;23.260;2023-03-01T02:46:56;94733.19;;;5.46;100.00
6433;BME280;3249;42.690;23.260;2023-03-01T02:49:27;94728.25;;;5.44;100.00
6433;BME280;3249;42.690;23.260;2023-03-01T02:52:37;94729.00;;;5.30;100.00
6433;BME280;3249;42.690;23.260;2023-03-01T02:55:13;94725.34;;;5.33;100.00
6433;BME280;3249;42.690;23.260;2023-03-01T02:57:45;94705.63;;;5.04;100.00
6433;BME280;3249;42.690;23.260;2023-03-01T03:00:21;94717.19;;;5.15;100.00
6433;BME280;3249;42.690;23.260;2023-03-01T03:02:53;94718.72;;;5.01;100.00
6433;BME280;3249;42.690;23.260;2023-03-01T03:05:25;94719.91;;;4.90;100.00
6433;BME280;3249;42.690;23.260;2023-03-01T03:07:57;94715.25;;;4.94;100.00
6433;BME280;3249;42.690;23.260;2023-03-01T03:10:28;94713.41;;;4.88;100.00
6433;BME280;3249;42.690;23.260;2023-03-01T03:12:59;94720.03;;;4.97;100.00
6433;BME280;3249;42.690;23.260;2023-03-01T03:15:33;94717.31;;;4.98;100.00
6433;BME280;3249;42.690;23.260;2023-03-01T03:18:04;94719.53;;;5.02;100.00
6433;BME280;3249;42.690;23.260;2023-03-01T03:20:34;94729.44;;;5.19;100.00
6433;BME280;3249;42.690;23.260;2023-03-01T03:23:03;94722.06;;;5.02;100.00
6433;BME280;3249;42.690;23.260;2023-03-01T03:25:32;94723.41;;;5.12;100.00
6433;BME280;3249;42.690;23.260;2023-03-01T03:28:04;94727.06;;;4.95;100.00
6433;BME280;3249;42.690;23.260;2023-03-01T03:30:39;94724.91;;;5.07;100.00
6433;BME280;3249;42.690;23.260;2023-03-01T03:33:10;94728.19;;;5.15;100.00
6433;BME280;3249;42.690;23.260;2023-03-01T03:35:42;94730.06;;;4.98;100.00
6433;BME280;3249;42.690;23.260;2023-03-01T03:38:12;94730.22;;;4.97;100.00
6433;BME280;3249;42.690;23.260;2023-03-01T03:40:46;94735.88;;;4.84;100.00
6433;BME280;3249;42.690;23.260;2023-03-01T03:43:17;94736.75;;;4.77;100.00
6433;BME280;3249;42.690;23.260;2023-03-01T03:45:50;94739.78;;;4.72;100.00
6433;BME280;3249;42.690;23.260;2023-03-01T03:48:20;94726.59;;;4.69;100.00
6433;BME280;3249;42.690;23.260;2023-03-01T03:50:50;94739.75;;;4.80;100.00
6433;BME280;3249;42.690;23.260;2023-03-01T03:53:21;94745.09;;;4.71;100.00
6433;BME280;3249;42.690;23.260;2023-03-01T03:55:50;94740.31;;;4.68;100.00
6433;BME280;3249;42.690;23.260;2023-03-01T03:58:21;94727.72;;;4.44;100.00
6433;BME280;3249;42.690;23.260;2023-03-01T04:00:55;94700.88;;;4.33;100.00
6433;BME280;3249;42.690;23.260;2023-03-01T04:03:27;94720.88;;;4.36;100.00
6433;BME280;3249;42.690;23.260;2023-03-01T04:05:58;94739.16;;;4.48;100.00
6433;BME280;3249;42.690;23.260;2023-03-01T04:08:27;94735.97;;;4.46;100.00
6433;BME280;3249;42.690;23.260;2023-03-01T04:10:59;94709.31;;;4.26;100.00
6433;BME280;3249;42.690;23.260;2023-03-01T04:13:49;94736.78;;;4.46;100.00
6433;BME280;3249;42.690;23.260;2023-03-01T04:16:20;94736.31;;;4.43;100.00
6433;BME280;3249;42.690;23.260;2023-03-01T04:18:50;94735.38;;;4.44;100.00
6433;BME280;3249;42.690;23.260;2023-03-01T04:21:19;94732.50;;;4.39;100.00
6433;BME280;3249;42.690;23.260;2023-03-01T04:23:48;94737.78;;;4.37;100.00
6433;BME280;3249;42.690;23.260;2023-03-01T04:26:18;94730.91;;;4.38;100.00
6433;BME280;3249;42.690;23.260;2023-03-01T04:28:48;94733.59;;;4.44;100.00
6433;BME280;3249;42.690;23.260;2023-03-01T04:31:20;94740.41;;;4.52;100.00
6433;BME280;3249;42.690;23.260;2023-03-01T04:33:51;94724.38;;;4.43;100.00
6433;BME280;3249;42.690;23.260;2023-03-01T04:36:21;94725.16;;;4.44;100.00
6433;BME280;3249;42.690;23.260;2023-03-01T04:38:50;94739.72;;;4.58;100.00
6433;BME280;3249;42.690;23.260;2023-03-01T04:41:21;94715.47;;;4.39;100.00
6433;BME280;3249;42.690;23.260;2023-03-01T04:43:50;94669.06;;;3.91;100.00
6433;BME280;3249;42.690;23.260;2023-03-01T04:46:22;94732.06;;;4.35;100.00
6433;BME280;3249;42.690;23.260;2023-03-01T04:48:51;94721.91;;;4.27;100.00
6433;BME280;3249;42.690;23.260;2023-03-01T04:51:20;94717.50;;;4.21;100.00
6433;BME280;3249;42.690;23.260;2023-03-01T04:53:49;94719.22;;;4.21;100.00
6433;BME280;3249;42.690;23.260;2023-03-01T04:56:18;94717.97;;;4.17;100.00
6433;BME280;3249;42.690;23.260;2023-03-01T04:58:49;94722.09;;;4.18;100.00
6433;BME280;3249;42.690;23.260;2023-03-01T05:01:19;94715.72;;;4.22;100.00
6433;BME280;3249;42.690;23.260;2023-03-01T05:03:51;94715.25;;;4.18;100.00
6433;BME280;3249;42.690;23.260;2023-03-01T05:06:21;94724.16;;;4.22;100.00
6433;BME280;3249;42.690;23.260;2023-03-01T05:08:50;94720.66;;;4.23;100.00
6433;BME280;3249;42.690;23.260;2023-03-01T05:11:19;94717.13;;;4.24;100.00
6433;BME280;3249;42.690;23.260;2023-03-01T05:13:48;94711.63;;;4.13;100.00
6433;BME280;3249;42.690;23.260;2023-03-01T05:16:20;94724.19;;;4.14;100.00
6433;BME280;3249;42.690;23.260;2023-03-01T05:18:52;94720.84;;;4.14;100.00
6433;BME280;3249;42.690;23.260;2023-03-01T05:21:21;94729.72;;;4.26;100.00
6433;BME280;3249;42.690;23.260;2023-03-01T05:23:50;94731.81;;;4.22;100.00
6433;BME280;3249;42.690;23.260;2023-03-01T05:26:20;94730.56;;;4.18;100.00
6433;BME280;3249;42.690;23.260;2023-03-01T05:28:54;94725.63;;;4.17;100.00
6433;BME280;3249;42.690;23.260;2023-03-01T05:31:25;94723.34;;;4.22;100.00
6433;BME280;3249;42.690;23.260;2023-03-01T05:33:56;94734.16;;;4.32;100.00
6433;BME280;3249;42.690;23.260;2023-03-01T05:36:25;94724.94;;;4.23;100.00
6433;BME280;3249;42.690;23.260;2023-03-01T05:38:54;94728.78;;;4.19;100.00
6433;BME280;3249;42.690;23.260;2023-03-01T05:41:23;94703.56;;;4.01;100.00
6433;BME280;3249;42.690;23.260;2023-03-01T05:43:52;94732.25;;;4.26;100.00
6433;BME280;3249;42.690;23.260;2023-03-01T05:46:21;94723.69;;;4.19;100.00
6433;BME280;3249;42.690;23.260;2023-03-01T05:48:50;94729.13;;;4.16;100.00
6433;BME280;3249;42.690;23.260;2023-03-01T05:51:22;94738.66;;;4.22;100.00
6433;BME280;3249;42.690;23.260;2023-03-01T05:53:52;94739.56;;;4.29;100.00
6433;BME280;3249;42.690;23.260;2023-03-01T05:56:21;94748.19;;;4.28;100.00
6433;BME280;3249;42.690;23.260;2023-03-01T05:58:50;94739.81;;;4.11;100.00
6433;BME280;3249;42.690;23.260;2023-03-01T06:01:20;94754.09;;;4.20;100.00
6433;BME280;3249;42.690;23.260;2023-03-01T06:03:49;94753.59;;;4.25;100.00
6433;BME280;3249;42.690;23.260;2023-03-01T06:06:18;94767.16;;;4.25;100.00
6433;BME280;3249;42.690;23.260;2023-03-01T06:08:50;94769.81;;;4.32;100.00
6433;BME280;3249;42.690;23.260;2023-03-01T06:11:19;94760.53;;;4.39;100.00
6433;BME280;3249;42.690;23.260;2023-03-01T06:13:48;94762.38;;;4.53;100.00
6433;BME280;3249;42.690;23.260;2023-03-01T06:16:16;94786.28;;;4.52;100.00
6433;BME280;3249;42.690;23.260;2023-03-01T06:18:45;94767.84;;;4.42;100.00
6433;BME280;3249;42.690;23.260;2023-03-01T06:21:14;94777.59;;;4.38;100.00
6433;BME280;3249;42.690;23.260;2023-03-01T06:23:43;94782.81;;;4.45;100.00
6433;BME280;3249;42.690;23.260;2023-03-01T06:26:15;94786.34;;;4.44;100.00
6433;BME280;3249;42.690;23.260;2023-03-01T06:28:44;94774.53;;;4.43;100.00
6433;BME280;3249;42.690;23.260;2023-03-01T06:31:14;94764.53;;;4.41;100.00
6433;BME280;3249;42.690;23.260;2023-03-01T06:33:43;94780.25;;;4.45;100.00
6433;BME280;3249;42.690;23.260;2023-03-01T06:36:13;94770.72;;;4.39;100.00
6433;BME280;3249;42.690;23.260;2023-03-01T06:38:44;94786.28;;;4.52;100.00
6433;BME280;3249;42.690;23.260;2023-03-01T06:41:16;94781.97;;;4.52;100.00
6433;BME280;3249;42.690;23.260;2023-03-01T06:43:45;94769.41;;;4.51;100.00
6433;BME280;3249;42.690;23.260;2023-03-01T06:46:17;94785.28;;;4.61;100.00
6433;BME280;3249;42.690;23.260;2023-03-01T06:48:46;94781.75;;;4.62;100.00
6433;BME280;3249;42.690;23.260;2023-03-01T06:51:15;94772.91;;;4.50;100.00
6433;BME280;3249;42.690;23.260;2023-03-01T06:53:45;94782.25;;;4.65;100.00
6433;BME280;3249;42.690;23.260;2023-03-01T06:56:17;94771.53;;;4.70;100.00
6433;BME280;3249;42.690;23.260;2023-03-01T06:58:46;94782.03;;;4.75;100.00
6433;BME280;3249;42.690;23.260;2023-03-01T07:01:16;94769.44;;;4.73;100.00
6433;BME280;3249;42.690;23.260;2023-03-01T07:03:45;94781.41;;;4.73;100.00
6433;BME280;3249;42.690;23.260;2023-03-01T07:06:14;94787.91;;;4.75;100.00
6433;BME280;3249;42.690;23.260;2023-03-01T07:08:43;94784.81;;;4.88;100.00
6433;BME280;3249;42.690;23.260;2023-03-01T07:11:12;94779.72;;;4.88;100.00
6433;BME280;3249;42.690;23.260;2023-03-01T07:13:44;94782.38;;;4.94;100.00
6433;BME280;3249;42.690;23.260;2023-03-01T07:16:13;94780.78;;;5.16;100.00
6433;BME280;3249;42.690;23.260;2023-03-01T07:18:42;94779.13;;;5.00;100.00
6433;BME280;3249;42.690;23.260;2023-03-01T07:21:13;94779.53;;;5.12;100.00
6433;BME280;3249;42.690;23.260;2023-03-01T07:23:42;94779.53;;;5.12;100.00
6433;BME280;3249;42.690;23.260;2023-03-01T07:26:11;94760.16;;;5.03;100.00
6433;BME280;3249;42.690;23.260;2023-03-01T07:28:40;94776.72;;;5.07;100.00
6433;BME280;3249;42.690;23.260;2023-03-01T07:31:12;94769.13;;;5.22;100.00
6433;BME280;3249;42.690;23.260;2023-03-01T07:33:41;94748.34;;;5.02;100.00
6433;BME280;3249;42.690;23.260;2023-03-01T07:36:10;94766.72;;;5.20;100.00
6433;BME280;3249;42.690;23.260;2023-03-01T07:38:39;94770.28;;;5.34;100.00
6433;BME280;3249;42.690;23.260;2023-03-01T07:41:08;94774.94;;;5.53;100.00
6433;BME280;3249;42.690;23.260;2023-03-01T07:43:37;94774.94;;;5.67;100.00
6433;BME280;3249;42.690;23.260;2023-03-01T07:46:07;94769.97;;;5.88;100.00
6433;BME280;3249;42.690;23.260;2023-03-01T07:48:38;94756.19;;;5.75;100.00
6433;BME280;3249;42.690;23.260;2023-03-01T07:51:09;94773.41;;;5.81;100.00
6433;BME280;3249;42.690;23.260;2023-03-01T07:53:38;94730.78;;;5.30;100.00
6433;BME280;3249;42.690;23.260;2023-03-01T07:56:08;94766.56;;;5.59;100.00
6433;BME280;3249;42.690;23.260;2023-03-01T07:58:39;94761.53;;;5.65;100.00
6433;BME280;3249;42.690;23.260;2023-03-01T08:01:11;94756.81;;;5.40;100.00
6433;BME280;3249;42.690;23.260;2023-03-01T08:03:43;94756.50;;;5.57;100.00
6433;BME280;3249;42.690;23.260;2023-03-01T08:06:14;94759.63;;;5.67;100.00
6433;BME280;3249;42.690;23.260;2023-03-01T08:08:44;94757.91;;;5.82;100.00
6433;BME280;3249;42.690;23.260;2023-03-01T08:11:14;94758.38;;;5.63;100.00
6433;BME280;3249;42.690;23.260;2023-03-01T08:13:44;94756.78;;;5.62;100.00
6433;BME280;3249;42.690;23.260;2023-03-01T08:16:16;94761.38;;;5.67;100.00
6433;BME280;3249;42.690;23.260;2023-03-01T08:18:48;94754.91;;;5.93;100.00
6433;BME280;3249;42.690;23.260;2023-03-01T08:21:18;94750.75;;;6.21;100.00
6433;BME280;3249;42.690;23.260;2023-03-01T08:23:47;94763.28;;;6.02;100.00
6433;BME280;3249;42.690;23.260;2023-03-01T08:26:19;94756.41;;;6.31;100.00
6433;BME280;3249;42.690;23.260;2023-03-01T08:28:49;94761.34;;;6.18;100.00
6433;BME280;3249;42.690;23.260;2023-03-01T08:31:20;94767.13;;;6.41;100.00
6433;BME280;3249;42.690;23.260;2023-03-01T08:33:55;94760.91;;;6.00;100.00
6433;BME280;3249;42.690;23.260;2023-03-01T08:36:27;94755.75;;;6.29;100.00
6433;BME280;3249;42.690;23.260;2023-03-01T08:38:57;94748.38;;;6.34;100.00
6433;BME280;3249;42.690;23.260;2023-03-01T08:41:27;94752.84;;;6.47;100.00
6433;BME280;3249;42.690;23.260;2023-03-01T08:43:56;94711.84;;;6.40;100.00
6433;BME280;3249;42.690;23.260;2023-03-01T08:46:27;94727.25;;;6.47;100.00
6433;BME280;3249;42.690;23.260;2023-03-01T08:49:03;94757.38;;;6.66;100.00
6433;BME280;3249;42.690;23.260;2023-03-01T08:51:33;94764.81;;;6.61;100.00
6433;BME280;3249;42.690;23.260;2023-03-01T08:54:13;94743.56;;;6.81;100.00
6433;BME280;3249;42.690;23.260;2023-03-01T08:57:07;94743.56;;;6.81;100.00
6433;BME280;3249;42.690;23.260;2023-03-01T08:59:42;94766.88;;;7.07;100.00
6433;BME280;3249;42.690;23.260;2023-03-01T09:02:16;94750.16;;;7.11;100.00
6433;BME280;3249;42.690;23.260;2023-03-01T09:04:49;94774.66;;;6.99;100.00
6433;BME280;3249;42.690;23.260;2023-03-01T09:07:18;94762.00;;;7.12;100.00
6433;BME280;3249;42.690;23.260;2023-03-01T09:09:48;94766.09;;;7.28;100.00
6433;BME280;3249;42.690;23.260;2023-03-01T09:12:19;94768.31;;;7.58;100.00
6433;BME280;3249;42.690;23.260;2023-03-01T09:14:49;94759.09;;;7.43;100.00
6433;BME280;3249;42.690;23.260;2023-03-01T09:17:18;94769.28;;;7.36;100.00
6433;BME280;3249;42.690;23.260;2023-03-01T09:23:27;94768.06;;;7.32;100.00
6433;BME280;3249;42.690;23.260;2023-03-01T09:25:56;94758.47;;;7.34;100.00
6433;BME280;3249;42.690;23.260;2023-03-01T09:28:26;94755.75;;;7.42;100.00
6433;BME280;3249;42.690;23.260;2023-03-01T09:30:58;94749.66;;;7.43;100.00
6433;BME280;3249;42.690;23.260;2023-03-01T09:33:29;94765.03;;;7.43;100.00
6433;BME280;3249;42.690;23.260;2023-03-01T09:35:59;94767.84;;;7.27;100.00
6433;BME280;3249;42.690;23.260;2023-03-01T09:38:31;94759.13;;;7.01;100.00
6433;BME280;3249;42.690;23.260;2023-03-01T09:41:01;94749.81;;;7.14;100.00
6433;BME280;3249;42.690;23.260;2023-03-01T09:43:36;94723.22;;;7.15;100.00
6433;BME280;3249;42.690;23.260;2023-03-01T09:46:12;94745.78;;;7.26;100.00
6433;BME280;3249;42.690;23.260;2023-03-01T09:48:44;94752.13;;;7.30;100.00
6433;BME280;3249;42.690;23.260;2023-03-01T09:51:17;94746.38;;;7.28;100.00
6433;BME280;3249;42.690;23.260;2023-03-01T09:53:50;94742.91;;;7.63;100.00
6433;BME280;3249;42.690;23.260;2023-03-01T09:56:24;94744.03;;;7.54;100.00
6433;BME280;3249;42.690;23.260;2023-03-01T09:59:01;94741.63;;;7.46;100.00
6433;BME280;3249;42.690;23.260;2023-03-01T10:01:38;94734.38;;;7.84;100.00
6433;BME280;3249;42.690;23.260;2023-03-01T10:04:34;94725.63;;;7.72;100.00
6433;BME280;3249;42.690;23.260;2023-03-01T10:07:21;94732.53;;;8.05;100.00
6433;BME280;3249;42.690;23.260;2023-03-01T10:09:54;94737.41;;;8.21;100.00
6433;BME280;3249;42.690;23.260;2023-03-01T10:12:27;94738.84;;;8.43;100.00
6433;BME280;3249;42.690;23.260;2023-03-01T10:15:05;94732.59;;;8.52;100.00
6433;BME280;3249;42.690;23.260;2023-03-01T10:17:41;94731.25;;;7.88;100.00
6433;BME280;3249;42.690;23.260;2023-03-01T10:20:21;94731.41;;;8.14;100.00
6433;BME280;3249;42.690;23.260;2023-03-01T10:22:51;94727.06;;;8.15;100.00
6433;BME280;3249;42.690;23.260;2023-03-01T10:25:36;94724.47;;;7.74;100.00
6433;BME280;3249;42.690;23.260;2023-03-01T10:28:17;94732.38;;;8.13;100.00
6433;BME280;3249;42.690;23.260;2023-03-01T10:30:49;94710.34;;;7.85;100.00
6433;BME280;3249;42.690;23.260;2023-03-01T10:33:23;94732.16;;;7.74;100.00
6433;BME280;3249;42.690;23.260;2023-03-01T10:35:58;94719.47;;;8.00;100.00
6433;BME280;3249;42.690;23.260;2023-03-01T10:38:30;94718.13;;;8.04;100.00
6433;BME280;3249;42.690;23.260;2023-03-01T10:41:05;94709.47;;;8.05;100.00
6433;BME280;3249;42.690;23.260;2023-03-01T10:43:43;94720.50;;;7.72;100.00
6433;BME280;3249;42.690;23.260;2023-03-01T10:46:24;94715.28;;;7.86;100.00
6433;BME280;3249;42.690;23.260;2023-03-01T10:49:07;94707.81;;;7.57;100.00
6433;BME280;3249;42.690;23.260;2023-03-01T10:51:44;94710.72;;;7.82;100.00
6433;BME280;3249;42.690;23.260;2023-03-01T10:54:19;94701.63;;;7.79;100.00
6433;BME280;3249;42.690;23.260;2023-03-01T10:56:52;94705.41;;;7.83;100.00
6433;BME280;3249;42.690;23.260;2023-03-01T10:59:27;94706.16;;;7.50;100.00
6433;BME280;3249;42.690;23.260;2023-03-01T11:02:13;94709.31;;;7.79;100.00
6433;BME280;3249;42.690;23.260;2023-03-01T11:04:57;94705.84;;;7.59;100.00
6433;BME280;3249;42.690;23.260;2023-03-01T11:07:27;94709.91;;;7.75;100.00
6433;BME280;3249;42.690;23.260;2023-03-01T11:09:56;94715.88;;;7.88;100.00
6433;BME280;3249;42.690;23.260;2023-03-01T11:12:28;94717.75;;;8.07;100.00
6433;BME280;3249;42.690;23.260;2023-03-01T11:14:58;94711.75;;;7.94;100.00
6433;BME280;3249;42.690;23.260;2023-03-01T11:17:30;94700.13;;;7.91;100.00
6433;BME280;3249;42.690;23.260;2023-03-01T11:20:16;94679.25;;;7.94;100.00
6433;BME280;3249;42.690;23.260;2023-03-01T11:22:51;94683.97;;;7.91;100.00
6433;BME280;3249;42.690;23.260;2023-03-01T11:25:25;94696.16;;;7.89;100.00
6433;BME280;3249;42.690;23.260;2023-03-01T11:27:59;94686.78;;;8.02;100.00
6433;BME280;3249;42.690;23.260;2023-03-01T11:30:35;94676.91;;;7.99;100.00
6433;BME280;3249;42.690;23.260;2023-03-01T11:33:17;94701.22;;;8.16;100.00
6433;BME280;3249;42.690;23.260;2023-03-01T11:35:55;94695.47;;;8.01;100.00
6433;BME280;3249;42.690;23.260;2023-03-01T11:38:28;94690.88;;;8.31;100.00
6433;BME280;3249;42.690;23.260;2023-03-01T11:41:06;94685.91;;;8.23;100.00
6433;BME280;3249;42.690;23.260;2023-03-01T11:43:47;94684.16;;;8.30;100.00
6433;BME280;3249;42.690;23.260;2023-03-01T11:46:39;94685.16;;;8.35;100.00
6433;BME280;3249;42.690;23.260;2023-03-01T11:49:28;94671.44;;;8.15;100.00
6433;BME280;3249;42.690;23.260;2023-03-01T11:52:04;94665.91;;;8.05;100.00
6433;BME280;3249;42.690;23.260;2023-03-01T11:54:47;94663.97;;;8.20;100.00
6433;BME280;3249;42.690;23.260;2023-03-01T11:57:37;94665.19;;;8.24;100.00
6433;BME280;3249;42.690;23.260;2023-03-01T12:03:30;94655.94;;;7.83;100.00
6433;BME280;3249;42.690;23.260;2023-03-01T12:06:28;94657.56;;;7.97;100.00
6433;BME280;3249;42.690;23.260;2023-03-01T12:09:14;94654.31;;;7.75;100.00
6433;BME280;3249;42.690;23.260;2023-03-01T12:12:01;94650.38;;;7.79;100.00
6433;BME280;3249;42.690;23.260;2023-03-01T12:14:55;94653.81;;;7.99;100.00
6433;BME280;3249;42.690;23.260;2023-03-01T12:17:49;94617.41;;;8.10;100.00
6433;BME280;3249;42.690;23.260;2023-03-01T12:20:31;94642.09;;;8.24;100.00
6433;BME280;3249;42.690;23.260;2023-03-01T12:26:20;94638.78;;;8.30;100.00
6433;BME280;3249;42.690;23.260;2023-03-01T12:29:01;94639.78;;;8.29;100.00
6433;BME280;3249;42.690;23.260;2023-03-01T12:34:50;94635.28;;;8.44;100.00
6433;BME280;3249;42.690;23.260;2023-03-01T12:37:34;94618.72;;;8.47;100.00
6433;BME280;3249;42.690;23.260;2023-03-01T12:40:32;94633.69;;;8.50;100.00
6433;BME280;3249;42.690;23.260;2023-03-01T12:43:10;94633.72;;;8.56;100.00
6433;BME280;3249;42.690;23.260;2023-03-01T12:45:53;94637.69;;;8.65;100.00
6433;BME280;3249;42.690;23.260;2023-03-01T12:48:41;94628.81;;;8.61;100.00
6433;BME280;3249;42.690;23.260;2023-03-01T12:51:14;94636.88;;;8.65;100.00
6433;BME280;3249;42.690;23.260;2023-03-01T12:53:48;94614.16;;;8.55;100.00
6433;BME280;3249;42.690;23.260;2023-03-01T12:56:21;94625.84;;;8.64;100.00
6433;BME280;3249;42.690;23.260;2023-03-01T12:58:59;94631.56;;;8.53;100.00
6433;BME280;3249;42.690;23.260;2023-03-01T13:01:36;94637.13;;;8.76;100.00
6433;BME280;3249;42.690;23.260;2023-03-01T13:04:20;94638.31;;;8.87;100.00
6433;BME280;3249;42.690;23.260;2023-03-01T13:07:02;94638.50;;;8.92;100.00
6433;BME280;3249;42.690;23.260;2023-03-01T13:09:40;94641.66;;;8.87;100.00
6433;BME280;3249;42.690;23.260;2023-03-01T13:15:33;94629.63;;;8.81;100.00
6433;BME280;3249;42.690;23.260;2023-03-01T13:18:04;94629.56;;;8.62;100.00
6433;BME280;3249;42.690;23.260;2023-03-01T13:20:55;94628.16;;;8.46;100.00
6433;BME280;3249;42.690;23.260;2023-03-01T13:23:28;94634.88;;;8.41;100.00
6433;BME280;3249;42.690;23.260;2023-03-01T13:26:10;94637.69;;;8.59;100.00
6433;BME280;3249;42.690;23.260;2023-03-01T13:28:49;94643.78;;;8.58;100.00
6433;BME280;3249;42.690;23.260;2023-03-01T13:34:44;94631.75;;;8.58;100.00
6433;BME280;3249;42.690;23.260;2023-03-01T13:37:24;94640.41;;;8.44;100.00
6433;BME280;3249;42.690;23.260;2023-03-01T13:42:52;94632.09;;;8.36;100.00
6433;BME280;3249;42.690;23.260;2023-03-01T13:45:34;94627.97;;;8.41;100.00
6433;BME280;3249;42.690;23.260;2023-03-01T13:48:18;94629.16;;;8.45;100.00
6433;BME280;3249;42.690;23.260;2023-03-01T13:50:55;94633.28;;;8.40;100.00
6433;BME280;3249;42.690;23.260;2023-03-01T13:53:31;94628.56;;;8.43;100.00
6433;BME280;3249;42.690;23.260;2023-03-01T13:56:07;94624.63;;;8.47;100.00
6433;BME280;3249;42.690;23.260;2023-03-01T13:58:56;94599.75;;;8.41;100.00
6433;BME280;3249;42.690;23.260;2023-03-01T14:01:28;94630.38;;;8.62;100.00
6433;BME280;3249;42.690;23.260;2023-03-01T14:03:59;94628.19;;;8.66;100.00